createdAt,value
2023-03-05T00:00:47.804Z,69.82
2023-03-05T00:01:54.587Z,69.69
2023-03-05T00:03:16.481Z,69.73
2023-03-05T00:04:39.133Z,69.99
2023-03-05T00:06:00.744Z,70.12
2023-03-05T00:07:23.478Z,70.03
2023-03-05T00:08:45.400Z,69.86
2023-03-05T00:10:09.161Z,70.19
2023-03-05T00:11:31.620Z,69.92
2023-03-05T00:12:54.524Z,69.98
2023-03-05T00:13:58.908Z,70.12
2023-03-05T00:15:01.643Z,70.01
2023-03-05T00:16:04.336Z,70.22
2023-03-05T00:17:08.470Z,70.14
2023-03-05T00:18:10.209Z,69.99
2023-03-05T00:19:13.112Z,69.71
2023-03-05T00:20:15.103Z,70.21
2023-03-05T00:21:22.719Z,69.87
2023-03-05T00:22:24.448Z,69.66
2023-03-05T00:23:27.300Z,70.10
2023-03-05T00:24:29.032Z,69.89
2023-03-05T00:25:32.626Z,70.21
2023-03-05T00:26:36.921Z,69.80
2023-03-05T00:27:39.768Z,69.95
2023-03-05T00:28:41.613Z,69.70
2023-03-05T00:29:51.466Z,69.90
2023-03-05T00:30:53.345Z,70.28
2023-03-05T00:31:56.191Z,69.76
2023-03-05T00:32:59.509Z,69.90
2023-03-05T00:34:03.998Z,69.98
2023-03-05T00:35:07.061Z,70.18
2023-03-05T00:36:11.637Z,69.77
2023-03-05T00:37:16.087Z,69.84
2023-03-05T00:38:28.305Z,69.77
2023-03-05T00:39:31.165Z,69.92
2023-03-05T00:40:43.137Z,69.98
2023-03-05T00:41:46.552Z,70.18
2023-03-05T00:42:48.547Z,69.97
2023-03-05T00:44:00.949Z,70.39
2023-03-05T00:45:02.807Z,69.67
2023-03-05T00:46:06.430Z,69.94
2023-03-05T00:47:08.357Z,70.15
2023-03-05T00:48:13.402Z,69.76
2023-03-05T00:49:16.117Z,69.79
2023-03-05T00:50:19.193Z,69.90
2023-03-05T00:51:22.229Z,70.13
2023-03-05T00:52:25.072Z,70.21
2023-03-05T00:53:27.179Z,70.29
2023-03-05T00:54:40.190Z,70.28
2023-03-05T00:55:42.323Z,69.78
2023-03-05T00:56:46.487Z,69.79
2023-03-05T00:57:48.304Z,70.19
2023-03-05T00:58:51.488Z,69.91
2023-03-05T00:59:53.560Z,70.21
2023-03-05T01:00:59.368Z,70.27
2023-03-05T01:02:06.346Z,70.15
2023-03-05T01:03:20.872Z,69.91
2023-03-05T01:04:22.873Z,69.89
2023-03-05T01:05:25.775Z,70.01
2023-03-05T01:06:28.263Z,70.43
2023-03-05T01:07:31.211Z,70.36
2023-03-05T01:08:33.615Z,70.16
2023-03-05T01:09:36.786Z,70.11
2023-03-05T01:10:41.412Z,69.84
2023-03-05T01:11:55.216Z,70.53
2023-03-05T01:12:57.828Z,70.17
2023-03-05T01:14:00.767Z,70.48
2023-03-05T01:15:04.647Z,70.25
2023-03-05T01:16:17.630Z,70.43
2023-03-05T01:17:19.734Z,70.40
2023-03-05T01:18:34.648Z,70.26
2023-03-05T01:19:36.574Z,70.38
2023-03-05T01:20:49.891Z,70.57
2023-03-05T01:21:52.035Z,70.76
2023-03-05T01:22:55.079Z,70.79
2023-03-05T01:23:56.858Z,70.72
2023-03-05T01:25:02.455Z,70.88
2023-03-05T01:26:05.447Z,70.89
2023-03-05T01:27:08.472Z,70.54
2023-03-05T01:28:20.327Z,70.46
2023-03-05T01:29:33.243Z,70.54
2023-03-05T01:30:35.387Z,70.78
2023-03-05T01:31:38.305Z,70.72
2023-03-05T01:32:40.420Z,70.74
2023-03-05T01:33:55.487Z,70.32
2023-03-05T01:34:57.540Z,70.42
2023-03-05T01:36:00.505Z,70.53
2023-03-05T01:37:03.623Z,70.34
2023-03-05T01:38:06.547Z,70.37
2023-03-05T01:39:08.576Z,70.80
2023-03-05T01:40:12.754Z,70.73
2023-03-05T01:41:16.370Z,70.53
2023-03-05T01:42:21.063Z,70.66
2023-03-05T01:43:33.973Z,70.87
2023-03-05T01:45:05.722Z,70.92
2023-03-05T01:46:29.685Z,70.84
2023-03-05T01:47:34.422Z,70.85
2023-03-05T01:48:36.243Z,70.64
2023-03-05T01:49:50.619Z,70.62
2023-03-05T01:50:53.257Z,70.92
2023-03-05T01:52:02.364Z,70.97
2023-03-05T01:53:07.574Z,71.09
2023-03-05T01:54:12.938Z,71.21
2023-03-05T01:55:18.265Z,71.09
2023-03-05T01:56:21.663Z,70.70
2023-03-05T01:57:38.802Z,70.78
2023-03-05T01:58:41.012Z,70.85
2023-03-05T01:59:47.799Z,70.99
2023-03-05T02:00:53.244Z,70.99
2023-03-05T02:02:00.418Z,70.98
2023-03-05T02:03:08.608Z,70.70
2023-03-05T02:04:18.763Z,70.93
2023-03-05T02:05:28.372Z,71.14
2023-03-05T02:06:42.891Z,70.65
2023-03-05T02:07:46.144Z,70.77
2023-03-05T02:08:48.659Z,71.16
2023-03-05T02:09:52.161Z,71.23
2023-03-05T02:10:56.611Z,70.86
2023-03-05T02:12:00.164Z,71.11
2023-03-05T02:13:05.215Z,71.02
2023-03-05T02:14:10.221Z,70.76
2023-03-05T02:15:13.185Z,70.94
2023-03-05T02:16:16.473Z,71.16
2023-03-05T02:17:27.405Z,71.09
2023-03-05T02:18:30.913Z,70.98
2023-03-05T02:19:48.490Z,71.39
2023-03-05T02:21:03.821Z,71.17
2023-03-05T02:22:15.176Z,71.48
2023-03-05T02:23:18.853Z,71.45
2023-03-05T02:24:36.277Z,71.14
2023-03-05T02:25:38.403Z,71.39
2023-03-05T02:26:43.005Z,71.26
2023-03-05T02:27:52.079Z,71.59
2023-03-05T02:28:59.576Z,71.35
2023-03-05T02:30:02.442Z,71.47
2023-03-05T02:31:10.980Z,71.49
2023-03-05T02:32:22.940Z,71.36
2023-03-05T02:33:26.299Z,71.57
2023-03-05T02:34:28.347Z,71.36
2023-03-05T02:35:31.781Z,71.70
2023-03-05T02:36:35.306Z,71.70
2023-03-05T02:37:38.452Z,71.73
2023-03-05T02:38:42.117Z,71.45
2023-03-05T02:39:45.144Z,71.71
2023-03-05T02:40:47.168Z,71.39
2023-03-05T02:41:50.215Z,71.64
2023-03-05T02:42:52.233Z,71.47
2023-03-05T02:43:55.321Z,71.25
2023-03-05T02:44:57.125Z,71.53
2023-03-05T02:46:00.171Z,71.75
2023-03-05T02:47:03.434Z,71.43
2023-03-05T02:48:05.727Z,71.55
2023-03-05T02:49:09.016Z,71.08
2023-03-05T02:50:12.217Z,71.35
2023-03-05T02:51:15.203Z,71.65
2023-03-05T02:52:23.601Z,71.69
2023-03-05T02:53:28.994Z,71.34
2023-03-05T02:54:31.083Z,71.74
2023-03-05T02:55:34.151Z,71.35
2023-03-05T02:56:38.171Z,71.39
2023-03-05T02:57:40.862Z,71.61
2023-03-05T02:58:42.940Z,71.51
2023-03-05T02:59:46.504Z,71.79
2023-03-05T03:00:48.418Z,71.98
2023-03-05T03:01:52.376Z,71.67
2023-03-05T03:02:54.209Z,71.83
2023-03-05T03:03:57.266Z,72.14
2023-03-05T03:04:59.123Z,71.78
2023-03-05T03:06:04.591Z,71.96
2023-03-05T03:07:06.787Z,71.76
2023-03-05T03:08:11.489Z,71.83
2023-03-05T03:09:13.259Z,72.23
2023-03-05T03:10:16.108Z,71.85
2023-03-05T03:11:18.689Z,72.13
2023-03-05T03:12:21.686Z,71.86
2023-03-05T03:13:24.297Z,71.97
2023-03-05T03:14:27.225Z,71.94
2023-03-05T03:15:29.211Z,72.33
2023-03-05T03:16:31.974Z,71.99
2023-03-05T03:17:35.925Z,72.05
2023-03-05T03:18:38.770Z,72.00
2023-03-05T03:19:40.931Z,72.15
2023-03-05T03:20:47.749Z,72.45
2023-03-05T03:21:50.303Z,72.31
2023-03-05T03:22:53.692Z,72.41
2023-03-05T03:23:57.127Z,72.25
2023-03-05T03:25:01.490Z,72.30
2023-03-05T03:26:03.389Z,72.42
2023-03-05T03:27:06.478Z,72.50
2023-03-05T03:28:08.304Z,72.42
2023-03-05T03:29:11.242Z,72.80
2023-03-05T03:30:14.728Z,72.48
2023-03-05T03:31:18.445Z,72.56
2023-03-05T03:32:30.719Z,72.72
2023-03-05T03:33:43.611Z,72.87
2023-03-05T03:34:45.450Z,72.72
2023-03-05T03:35:48.481Z,72.56
2023-03-05T03:36:53.052Z,72.78
2023-03-05T03:38:06.238Z,72.34
2023-03-05T03:39:10.311Z,72.50
2023-03-05T03:40:14.929Z,72.44
2023-03-05T03:41:16.883Z,72.50
2023-03-05T03:42:20.344Z,72.52
2023-03-05T03:43:22.308Z,72.34
2023-03-05T03:44:25.363Z,72.35
2023-03-05T03:45:27.230Z,72.48
2023-03-05T03:46:30.481Z,72.40
2023-03-05T03:47:32.253Z,72.30
2023-03-05T03:48:35.975Z,72.27
2023-03-05T03:49:37.702Z,72.56
2023-03-05T03:50:41.070Z,72.32
2023-03-05T03:51:42.940Z,72.42
2023-03-05T03:52:45.866Z,72.45
2023-03-05T03:53:47.767Z,72.29
2023-03-05T03:54:53.047Z,72.19
2023-03-05T03:55:58.523Z,72.57
2023-03-05T03:57:01.220Z,72.36
2023-03-05T03:58:03.352Z,72.44
2023-03-05T03:59:06.317Z,72.67
2023-03-05T04:00:10.202Z,72.35
2023-03-05T04:01:13.080Z,72.58
2023-03-05T04:02:14.854Z,72.38
2023-03-05T04:03:27.733Z,72.43
2023-03-05T04:04:30.260Z,72.39
2023-03-05T04:05:33.087Z,72.67
2023-03-05T04:06:35.155Z,72.54
2023-03-05T04:07:37.920Z,72.73
2023-03-05T04:08:40.793Z,72.50
2023-03-05T04:09:43.547Z,72.84
2023-03-05T04:10:46.682Z,72.50
2023-03-05T04:11:49.465Z,72.97
2023-03-05T04:12:51.262Z,72.82
2023-03-05T04:13:54.126Z,72.86
2023-03-05T04:15:07.794Z,72.51
2023-03-05T04:16:10.582Z,72.52
2023-03-05T04:17:13.214Z,72.66
2023-03-05T04:18:16.000Z,72.86
2023-03-05T04:19:17.737Z,72.80
2023-03-05T04:20:20.682Z,72.86
2023-03-05T04:21:22.680Z,72.52
2023-03-05T04:22:25.816Z,72.57
2023-03-05T04:23:27.581Z,73.04
2023-03-05T04:24:30.399Z,72.59
2023-03-05T04:25:33.366Z,73.04
2023-03-05T04:26:37.630Z,72.75
2023-03-05T04:27:40.361Z,72.64
2023-03-05T04:28:43.171Z,72.84
2023-03-05T04:29:45.066Z,72.79
2023-03-05T04:30:47.922Z,72.76
2023-03-05T04:31:49.790Z,73.19
2023-03-05T04:32:52.875Z,73.16
2023-03-05T04:33:54.931Z,72.87
2023-03-05T04:34:57.945Z,73.17
2023-03-05T04:36:00.226Z,72.79
2023-03-05T04:37:03.197Z,72.85
2023-03-05T04:38:05.914Z,72.88
2023-03-05T04:39:07.683Z,72.97
2023-03-05T04:40:15.854Z,73.12
2023-03-05T04:41:18.119Z,73.41
2023-03-05T04:42:22.324Z,72.89
2023-03-05T04:43:24.277Z,73.37
2023-03-05T04:44:27.265Z,73.00
2023-03-05T04:45:29.608Z,73.31
2023-03-05T04:46:32.737Z,73.08
2023-03-05T04:47:35.099Z,73.27
2023-03-05T04:48:38.035Z,73.27
2023-03-05T04:49:39.877Z,73.31
2023-03-05T04:50:42.699Z,73.46
2023-03-05T04:51:44.620Z,73.46
2023-03-05T04:52:47.475Z,73.13
2023-03-05T04:53:49.537Z,73.48
2023-03-05T04:54:52.378Z,73.56
2023-03-05T04:55:54.786Z,73.25
2023-03-05T04:56:57.590Z,73.59
2023-03-05T04:58:00.833Z,73.53
2023-03-05T04:59:04.085Z,73.71
2023-03-05T05:00:08.732Z,73.78
2023-03-05T05:01:13.787Z,73.30
2023-03-05T05:02:15.719Z,73.51
2023-03-05T05:03:18.770Z,73.50
2023-03-05T05:04:20.602Z,73.53
2023-03-05T05:05:25.063Z,73.59
2023-03-05T05:06:26.807Z,73.82
2023-03-05T05:07:29.844Z,73.49
2023-03-05T05:08:32.023Z,73.46
2023-03-05T05:09:34.729Z,73.35
2023-03-05T05:10:39.485Z,73.44
2023-03-05T05:11:42.206Z,73.39
2023-03-05T05:12:43.918Z,73.14
2023-03-05T05:13:48.083Z,73.54
2023-03-05T05:14:49.936Z,73.53
2023-03-05T05:15:52.682Z,73.60
2023-03-05T05:16:54.501Z,73.35
2023-03-05T05:17:57.206Z,73.34
2023-03-05T05:18:59.229Z,73.25
2023-03-05T05:20:04.666Z,73.59
2023-03-05T05:21:11.263Z,73.49
2023-03-05T05:22:13.901Z,73.26
2023-03-05T05:23:16.703Z,73.61
2023-03-05T05:24:19.674Z,73.57
2023-03-05T05:25:21.335Z,73.61
2023-03-05T05:26:24.373Z,73.30
2023-03-05T05:27:34.610Z,73.33
2023-03-05T05:28:38.327Z,73.62
2023-03-05T05:29:41.563Z,73.37
2023-03-05T05:30:44.228Z,73.23
2023-03-05T05:31:46.378Z,73.03
2023-03-05T05:32:49.207Z,73.42
2023-03-05T05:33:51.437Z,73.29
2023-03-05T05:34:58.380Z,73.13
2023-03-05T05:36:01.771Z,72.95
2023-03-05T05:37:04.651Z,73.10
2023-03-05T05:38:06.409Z,72.92
2023-03-05T05:39:09.426Z,73.13
2023-03-05T05:40:12.275Z,73.27
2023-03-05T05:41:17.248Z,72.88
2023-03-05T05:42:19.742Z,72.60
2023-03-05T05:43:22.672Z,72.92
2023-03-05T05:44:24.355Z,73.01
2023-03-05T05:45:40.022Z,72.76
2023-03-05T05:46:41.873Z,73.08
2023-03-05T05:47:44.835Z,73.02
2023-03-05T05:48:46.584Z,72.84
2023-03-05T05:49:49.238Z,72.77
2023-03-05T05:50:50.848Z,72.68
2023-03-05T05:51:53.548Z,72.87
2023-03-05T05:52:55.614Z,72.83
2023-03-05T05:54:02.173Z,72.75
2023-03-05T05:55:13.986Z,72.89
2023-03-05T05:56:17.640Z,72.97
2023-03-05T05:57:19.363Z,73.02
2023-03-05T05:58:23.103Z,72.79
2023-03-05T05:59:25.005Z,72.76
2023-03-05T06:00:27.823Z,72.91
2023-03-05T06:01:34.851Z,72.66
2023-03-05T06:02:39.442Z,72.62
2023-03-05T06:03:41.147Z,72.93
2023-03-05T06:04:43.903Z,72.85
2023-03-05T06:05:47.525Z,72.81
2023-03-05T06:06:50.178Z,72.72
2023-03-05T06:08:01.974Z,72.81
2023-03-05T06:09:05.603Z,72.62
2023-03-05T06:10:09.842Z,72.86
2023-03-05T06:11:13.123Z,72.84
2023-03-05T06:12:14.831Z,72.92
2023-03-05T06:13:17.504Z,72.64
2023-03-05T06:14:19.653Z,72.91
2023-03-05T06:15:22.637Z,72.88
2023-03-05T06:16:25.037Z,72.67
2023-03-05T06:17:31.032Z,72.53
2023-03-05T06:18:33.590Z,72.82
2023-03-05T06:19:36.199Z,72.80
2023-03-05T06:20:37.955Z,72.89
2023-03-05T06:21:41.515Z,72.83
2023-03-05T06:22:44.211Z,72.86
2023-03-05T06:23:47.301Z,72.53
2023-03-05T06:24:50.291Z,72.44
2023-03-05T06:25:52.488Z,72.69
2023-03-05T06:26:55.248Z,72.80
2023-03-05T06:27:57.098Z,72.38
2023-03-05T06:29:00.101Z,72.50
2023-03-05T06:30:02.123Z,72.77
2023-03-05T06:31:07.464Z,72.69
2023-03-05T06:32:09.459Z,72.62
2023-03-05T06:33:14.274Z,72.58
2023-03-05T06:34:16.171Z,72.59
2023-03-05T06:35:19.939Z,72.46
2023-03-05T06:36:24.145Z,72.58
2023-03-05T06:37:27.060Z,72.44
2023-03-05T06:38:29.318Z,72.58
2023-03-05T06:39:32.539Z,72.27
2023-03-05T06:40:35.067Z,72.43
2023-03-05T06:41:38.405Z,72.17
2023-03-05T06:42:41.271Z,72.28
2023-03-05T06:43:45.282Z,72.08
2023-03-05T06:44:48.370Z,72.42
2023-03-05T06:45:50.166Z,72.55
2023-03-05T06:46:53.545Z,72.24
2023-03-05T06:47:55.391Z,72.54
2023-03-05T06:49:01.561Z,72.44
2023-03-05T06:50:03.844Z,72.35
2023-03-05T06:51:15.704Z,72.36
2023-03-05T06:52:17.544Z,72.11
2023-03-05T06:53:20.335Z,72.15
2023-03-05T06:54:22.130Z,72.35
2023-03-05T06:55:24.948Z,72.13
2023-03-05T06:56:27.181Z,72.40
2023-03-05T06:57:30.091Z,72.30
2023-03-05T06:58:31.867Z,72.08
2023-03-05T06:59:34.630Z,72.09
2023-03-05T07:00:36.428Z,71.86
2023-03-05T07:01:44.549Z,71.99
2023-03-05T07:02:47.133Z,72.22
2023-03-05T07:03:51.110Z,71.87
2023-03-05T07:04:54.424Z,72.16
2023-03-05T07:05:57.297Z,71.88
2023-03-05T07:07:09.097Z,72.02
2023-03-05T07:08:11.912Z,72.16
2023-03-05T07:09:15.587Z,72.26
2023-03-05T07:10:19.436Z,71.85
2023-03-05T07:11:22.201Z,72.08
2023-03-05T07:12:25.031Z,71.75
2023-03-05T07:13:35.004Z,71.69
2023-03-05T07:14:38.405Z,71.82
2023-03-05T07:15:41.229Z,72.04
2023-03-05T07:16:43.995Z,71.65
2023-03-05T07:17:45.828Z,71.83
2023-03-05T07:18:49.245Z,72.09
2023-03-05T07:19:50.918Z,72.06
2023-03-05T07:20:55.462Z,71.92
2023-03-05T07:21:57.324Z,71.94
2023-03-05T07:23:00.099Z,71.70
2023-03-05T07:24:03.449Z,71.84
2023-03-05T07:25:07.402Z,72.06
2023-03-05T07:26:09.193Z,72.06
2023-03-05T07:27:12.208Z,72.12
2023-03-05T07:28:14.367Z,71.80
2023-03-05T07:29:17.427Z,72.05
2023-03-05T07:30:19.501Z,71.85
2023-03-05T07:31:27.178Z,71.87
2023-03-05T07:32:29.109Z,71.90
2023-03-05T07:33:33.559Z,72.00
2023-03-05T07:34:39.154Z,72.23
2023-03-05T07:35:41.433Z,71.75
2023-03-05T07:36:46.801Z,72.07
2023-03-05T07:37:48.620Z,71.90
2023-03-05T07:38:52.145Z,72.18
2023-03-05T07:39:54.951Z,72.28
2023-03-05T07:40:57.208Z,72.17
2023-03-05T07:42:00.042Z,72.30
2023-03-05T07:43:01.739Z,71.93
2023-03-05T07:44:04.449Z,72.08
2023-03-05T07:45:16.261Z,72.02
2023-03-05T07:46:20.209Z,71.76
2023-03-05T07:47:24.178Z,72.17
2023-03-05T07:48:26.024Z,72.22
2023-03-05T07:49:28.782Z,72.24
2023-03-05T07:50:30.496Z,72.35
2023-03-05T07:51:43.206Z,72.36
2023-03-05T07:52:46.389Z,72.11
2023-03-05T07:53:50.985Z,72.04
2023-03-05T07:54:52.710Z,72.03
2023-03-05T07:55:55.319Z,72.19
2023-03-05T07:56:58.033Z,72.00
2023-03-05T07:58:00.039Z,71.87
2023-03-05T07:59:05.080Z,72.04
2023-03-05T08:00:09.062Z,71.88
2023-03-05T08:01:13.871Z,72.17
2023-03-05T08:02:24.416Z,71.87
2023-03-05T08:03:32.449Z,71.78
2023-03-05T08:04:38.570Z,72.08
2023-03-05T08:05:42.911Z,71.86
2023-03-05T08:06:55.434Z,72.30
2023-03-05T08:07:58.361Z,71.92
2023-03-05T08:09:01.159Z,71.93
2023-03-05T08:10:07.799Z,71.92
2023-03-05T08:11:13.200Z,72.58
2023-03-05T08:12:14.932Z,72.13
2023-03-05T08:13:17.628Z,72.10
2023-03-05T08:14:19.226Z,72.01
2023-03-05T08:15:21.845Z,72.16
2023-03-05T08:16:26.010Z,71.87
2023-03-05T08:17:38.709Z,72.05
2023-03-05T08:18:40.512Z,72.17
2023-03-05T08:19:43.060Z,71.88
2023-03-05T08:20:44.646Z,71.77
2023-03-05T08:21:47.816Z,71.92
2023-03-05T08:22:53.824Z,71.83
2023-03-05T08:23:58.998Z,72.06
2023-03-05T08:25:00.845Z,71.77
2023-03-05T08:26:14.838Z,71.93
2023-03-05T08:27:17.542Z,71.84
2023-03-05T08:28:19.797Z,71.59
2023-03-05T08:29:22.787Z,71.84
2023-03-05T08:30:27.117Z,71.71
2023-03-05T08:31:30.970Z,71.78
2023-03-05T08:32:32.852Z,71.82
2023-03-05T08:33:35.581Z,71.85
2023-03-05T08:34:38.300Z,71.33
2023-03-05T08:35:40.168Z,71.46
2023-03-05T08:36:42.781Z,71.21
2023-03-05T08:37:44.407Z,71.67
2023-03-05T08:38:48.441Z,71.79
2023-03-05T08:39:51.688Z,71.48
2023-03-05T08:41:04.613Z,71.69
2023-03-05T08:42:16.290Z,71.86
2023-03-05T08:43:18.978Z,72.04
2023-03-05T08:44:20.852Z,71.98
2023-03-05T08:45:23.735Z,71.85
2023-03-05T08:46:25.573Z,71.57
2023-03-05T08:47:28.660Z,71.58
2023-03-05T08:48:31.645Z,71.82
2023-03-05T08:49:34.383Z,71.65
2023-03-05T08:50:38.870Z,71.93
2023-03-05T08:51:41.667Z,71.81
2023-03-05T08:52:44.287Z,71.77
2023-03-05T08:53:47.000Z,72.12
2023-03-05T08:54:49.618Z,72.01
2023-03-05T08:55:56.054Z,71.90
2023-03-05T08:56:59.061Z,71.98
2023-03-05T08:58:00.647Z,71.48
2023-03-05T08:59:04.258Z,71.68
2023-03-05T09:00:07.635Z,71.81
2023-03-05T09:01:13.743Z,71.58
2023-03-05T09:02:15.804Z,71.52
2023-03-05T09:03:19.646Z,71.68
2023-03-05T09:04:32.689Z,71.80
2023-03-05T09:05:37.213Z,71.39
2023-03-05T09:06:41.424Z,71.79
2023-03-05T09:07:43.249Z,71.50
2023-03-05T09:08:45.932Z,71.34
2023-03-05T09:09:47.610Z,71.52
2023-03-05T09:10:50.394Z,71.35
2023-03-05T09:11:53.541Z,71.42
2023-03-05T09:12:56.197Z,71.10
2023-03-05T09:13:58.002Z,71.39
2023-03-05T09:15:01.078Z,71.18
2023-03-05T09:16:06.642Z,70.96
2023-03-05T09:17:10.134Z,71.35
2023-03-05T09:18:11.887Z,70.98
2023-03-05T09:19:15.229Z,71.19
2023-03-05T09:20:17.348Z,71.44
2023-03-05T09:21:20.077Z,71.41
2023-03-05T09:22:32.950Z,71.26
2023-03-05T09:23:34.878Z,71.55
2023-03-05T09:24:37.816Z,71.34
2023-03-05T09:25:40.195Z,71.15
2023-03-05T09:26:43.262Z,71.64
2023-03-05T09:27:46.264Z,71.31
2023-03-05T09:28:49.781Z,71.46
2023-03-05T09:29:52.979Z,71.45
2023-03-05T09:30:56.134Z,71.10
2023-03-05T09:31:58.215Z,71.10
2023-03-05T09:33:00.929Z,70.99
2023-03-05T09:34:05.508Z,71.25
2023-03-05T09:35:08.315Z,71.00
2023-03-05T09:36:20.409Z,70.83
2023-03-05T09:37:22.943Z,70.86
2023-03-05T09:38:24.565Z,70.64
2023-03-05T09:39:27.144Z,71.15
2023-03-05T09:40:36.251Z,70.75
2023-03-05T09:42:02.975Z,70.65
2023-03-05T09:43:15.820Z,70.81
2023-03-05T09:44:25.132Z,71.08
2023-03-05T09:45:29.368Z,71.06
2023-03-05T09:46:42.706Z,70.98
2023-03-05T09:48:04.354Z,71.08
2023-03-05T09:49:15.887Z,71.29
2023-03-05T09:50:33.960Z,71.11
2023-03-05T09:51:41.334Z,71.03
2023-03-05T09:52:47.842Z,71.07
2023-03-05T09:53:54.579Z,71.02
2023-03-05T09:54:58.836Z,71.11
2023-03-05T09:56:04.214Z,70.88
2023-03-05T09:57:17.260Z,70.93
2023-03-05T09:58:31.943Z,70.80
2023-03-05T09:59:42.052Z,70.48
2023-03-05T10:00:47.116Z,71.10
2023-03-05T10:01:52.759Z,70.75
2023-03-05T10:02:58.399Z,70.93
2023-03-05T10:04:07.326Z,71.02
2023-03-05T10:05:17.863Z,71.20
2023-03-05T10:06:24.242Z,70.92
2023-03-05T10:07:30.887Z,70.73
2023-03-05T10:08:45.574Z,70.83
2023-03-05T10:09:56.018Z,70.72
2023-03-05T10:11:02.809Z,70.64
2023-03-05T10:12:11.688Z,70.69
2023-03-05T10:13:23.003Z,70.99
2023-03-05T10:14:29.495Z,70.95
2023-03-05T10:15:41.247Z,70.94
2023-03-05T10:16:59.850Z,71.10
2023-03-05T10:18:20.145Z,71.11
2023-03-05T10:19:36.077Z,70.58
2023-03-05T10:20:50.817Z,70.57
2023-03-05T10:22:15.243Z,70.59
2023-03-05T10:23:25.847Z,70.64
2023-03-05T10:24:37.095Z,70.46
2023-03-05T10:25:55.565Z,70.45
2023-03-05T10:27:03.559Z,70.28
2023-03-05T10:28:17.749Z,70.46
2023-03-05T10:29:40.842Z,70.36
2023-03-05T10:31:05.123Z,69.98
2023-03-05T10:32:27.400Z,69.87
2023-03-05T10:33:34.866Z,69.83
2023-03-05T10:35:06.156Z,69.74
2023-03-05T10:36:41.519Z,69.47
2023-03-05T10:38:22.653Z,69.21
2023-03-05T10:40:00.769Z,69.14
2023-03-05T10:41:13.387Z,69.28
2023-03-05T10:42:24.021Z,69.02
2023-03-05T10:43:36.955Z,68.99
2023-03-05T10:44:44.446Z,68.86
2023-03-05T10:45:51.000Z,69.08
2023-03-05T10:46:58.248Z,68.67
2023-03-05T10:48:07.390Z,68.72
2023-03-05T10:49:19.106Z,69.01
2023-03-05T10:50:24.217Z,68.75
2023-03-05T10:51:35.318Z,68.81
2023-03-05T10:52:40.564Z,68.89
2023-03-05T10:53:52.989Z,68.69
2023-03-05T10:54:54.677Z,68.69
2023-03-05T10:55:57.509Z,68.44
2023-03-05T10:57:04.128Z,68.53
2023-03-05T10:58:12.447Z,68.37
2023-03-05T10:59:17.373Z,68.35
2023-03-05T11:00:23.875Z,68.15
2023-03-05T11:01:30.784Z,67.76
2023-03-05T11:02:34.013Z,67.72
2023-03-05T11:03:52.543Z,67.92
2023-03-05T11:04:55.630Z,67.84
2023-03-05T11:06:00.395Z,67.46
2023-03-05T11:07:08.553Z,67.35
2023-03-05T11:08:25.170Z,67.51
2023-03-05T11:09:29.188Z,67.27
2023-03-05T11:10:30.733Z,67.24
2023-03-05T11:11:33.301Z,67.30
2023-03-05T11:12:36.236Z,67.03
2023-03-05T11:13:47.211Z,67.13
2023-03-05T11:15:06.293Z,67.28
2023-03-05T11:16:18.822Z,67.20
2023-03-05T11:17:32.301Z,67.18
2023-03-05T11:18:34.658Z,67.01
2023-03-05T11:19:39.724Z,66.83
2023-03-05T11:20:50.469Z,66.89
2023-03-05T11:22:08.233Z,66.82
2023-03-05T11:23:13.120Z,66.44
2023-03-05T11:24:18.952Z,66.54
2023-03-05T11:25:22.552Z,66.55
2023-03-05T11:26:25.090Z,66.53
2023-03-05T11:27:36.025Z,66.30
2023-03-05T11:28:40.879Z,66.21
2023-03-05T11:29:49.047Z,66.33
2023-03-05T11:30:58.210Z,66.25
2023-03-05T11:32:17.348Z,66.40
2023-03-05T11:33:22.600Z,66.30
2023-03-05T11:34:35.103Z,66.25
2023-03-05T11:35:38.711Z,66.34
2023-03-05T11:36:43.413Z,66.36
2023-03-05T11:38:00.388Z,66.31
2023-03-05T11:39:12.283Z,66.26
2023-03-05T11:40:20.893Z,66.36
2023-03-05T11:41:38.171Z,66.51
2023-03-05T11:42:40.910Z,66.55
2023-03-05T11:43:44.803Z,66.67
2023-03-05T11:44:49.884Z,66.96
2023-03-05T11:45:55.391Z,66.93
2023-03-05T11:47:02.495Z,66.94
2023-03-05T11:48:13.225Z,67.11
2023-03-05T11:49:21.703Z,67.16
2023-03-05T11:50:32.632Z,67.14
2023-03-05T11:51:42.599Z,67.10
2023-03-05T11:52:47.037Z,66.87
2023-03-05T11:53:52.947Z,66.98
2023-03-05T11:55:02.365Z,67.22
2023-03-05T11:56:14.363Z,67.40
2023-03-05T11:57:19.096Z,67.38
2023-03-05T11:58:29.470Z,67.22
2023-03-05T11:59:36.515Z,67.28
2023-03-05T12:00:41.579Z,67.15
2023-03-05T12:01:47.887Z,66.96
2023-03-05T12:02:54.550Z,66.99
2023-03-05T12:03:59.940Z,66.60
2023-03-05T12:05:03.259Z,66.61
2023-03-05T12:06:14.942Z,66.84
2023-03-05T12:07:22.628Z,66.89
2023-03-05T12:08:30.475Z,66.84
2023-03-05T12:09:42.233Z,66.91
2023-03-05T12:10:44.357Z,66.72
2023-03-05T12:11:49.588Z,66.95
2023-03-05T12:13:00.781Z,66.97
2023-03-05T12:14:11.078Z,66.73
2023-03-05T12:15:46.356Z,66.84
2023-03-05T12:16:55.958Z,66.96
2023-03-05T12:18:06.601Z,67.25
2023-03-05T12:19:34.441Z,67.24
2023-03-05T12:20:46.594Z,67.53
2023-03-05T12:21:51.300Z,67.50
2023-03-05T12:22:52.863Z,67.48
2023-03-05T12:24:01.235Z,67.20
2023-03-05T12:25:25.191Z,67.32
2023-03-05T12:26:59.251Z,67.38
2023-03-05T12:28:02.786Z,67.17
2023-03-05T12:29:04.393Z,67.07
2023-03-05T12:30:29.457Z,67.29
2023-03-05T12:31:39.984Z,66.96
2023-03-05T12:33:00.727Z,67.30
2023-03-05T12:35:54.555Z,67.45
2023-03-05T12:36:56.105Z,67.05
2023-03-05T12:38:24.323Z,67.22
2023-03-05T12:39:49.586Z,66.87
2023-03-05T12:40:51.124Z,67.09
2023-03-05T12:41:55.835Z,67.21
2023-03-05T12:42:59.994Z,67.05
2023-03-05T12:44:23.566Z,66.75
2023-03-05T12:45:28.986Z,66.78
2023-03-05T12:46:35.470Z,66.59
2023-03-05T12:47:39.323Z,66.08
2023-03-05T12:48:45.231Z,66.17
2023-03-05T12:49:48.550Z,66.29
2023-03-05T12:50:52.672Z,66.41
2023-03-05T12:51:59.005Z,65.78
2023-03-05T12:53:11.603Z,65.59
2023-03-05T12:54:29.088Z,65.48
2023-03-05T12:55:35.326Z,65.16
2023-03-05T12:56:47.070Z,65.09
2023-03-05T12:57:56.264Z,65.07
2023-03-05T12:59:00.782Z,64.84
2023-03-05T13:00:08.044Z,64.69
2023-03-05T13:01:23.630Z,64.66
2023-03-05T13:02:29.520Z,64.42
2023-03-05T13:03:36.442Z,64.26
2023-03-05T13:04:46.133Z,64.24
2023-03-05T13:05:51.385Z,63.99
2023-03-05T13:07:00.648Z,64.01
2023-03-05T13:08:21.134Z,63.96
2023-03-05T13:09:25.062Z,63.82
2023-03-05T13:10:30.169Z,63.77
2023-03-05T13:11:34.278Z,63.71
2023-03-05T13:12:39.706Z,63.33
2023-03-05T13:13:43.686Z,63.29
2023-03-05T13:14:47.655Z,63.45
2023-03-05T13:15:51.587Z,63.08
2023-03-05T13:16:54.138Z,62.85
2023-03-05T13:17:56.982Z,62.78
2023-03-05T13:19:02.522Z,62.61
2023-03-05T13:20:27.838Z,62.69
2023-03-05T13:21:32.049Z,62.40
2023-03-05T13:22:34.979Z,62.47
2023-03-05T13:23:37.442Z,62.26
2023-03-05T13:24:38.983Z,62.07
2023-03-05T13:25:41.598Z,61.70
2023-03-05T13:26:44.101Z,61.85
2023-03-05T13:27:45.712Z,61.68
2023-03-05T13:29:11.987Z,61.55
2023-03-05T13:30:22.031Z,61.22
2023-03-05T13:31:24.767Z,61.34
2023-03-05T13:32:28.861Z,61.62
2023-03-05T13:33:33.389Z,61.48
2023-03-05T13:34:46.598Z,61.35
2023-03-05T13:35:52.297Z,61.23
2023-03-05T13:36:59.049Z,61.30
2023-03-05T13:38:03.056Z,61.29
2023-03-05T13:39:06.615Z,61.21
2023-03-05T13:40:21.571Z,61.03
2023-03-05T13:41:25.632Z,61.01
2023-03-05T13:42:31.328Z,60.80
2023-03-05T13:43:32.934Z,61.03
2023-03-05T13:44:35.531Z,60.58
2023-03-05T13:45:37.379Z,60.90
2023-03-05T13:46:41.998Z,61.03
2023-03-05T13:47:53.224Z,60.99
2023-03-05T13:48:55.784Z,60.74
2023-03-05T13:49:59.977Z,60.55
2023-03-05T13:51:06.740Z,60.68
2023-03-05T13:52:08.296Z,60.53
2023-03-05T13:53:18.170Z,60.66
2023-03-05T13:55:30.993Z,60.58
2023-03-05T13:56:32.549Z,60.59
2023-03-05T13:57:39.838Z,60.63
2023-03-05T13:58:52.076Z,60.78
2023-03-05T13:59:54.725Z,60.67
2023-03-05T14:01:14.903Z,60.58
2023-03-05T14:02:21.045Z,60.81
2023-03-05T14:03:24.764Z,60.78
2023-03-05T14:04:29.625Z,60.79
2023-03-05T14:05:31.521Z,61.04
2023-03-05T14:06:43.288Z,60.96
2023-03-05T14:07:49.609Z,61.11
2023-03-05T14:08:58.495Z,61.22
2023-03-05T14:10:03.075Z,61.30
2023-03-05T14:11:16.529Z,61.39
2023-03-05T14:12:27.343Z,61.04